sensor_id;sensor_type;location;lat;lon;timestamp;temperature;humidity
69387;SHT31;56575;48.942;8.404;2022-12-07T00:02:17;4.71;90.37
69387;SHT31;56575;48.942;8.404;2022-12-07T00:04:42;4.74;90.29
69387;SHT31;56575;48.942;8.404;2022-12-07T00:13:10;4.65;90.32
69387;SHT31;56575;48.942;8.404;2022-12-07T00:15:35;4.67;90.72
69387;SHT31;56575;48.942;8.404;2022-12-07T00:18:01;4.67;90.49
69387;SHT31;56575;48.942;8.404;2022-12-07T00:30:27;4.65;90.56
69387;SHT31;56575;48.942;8.404;2022-12-07T00:32:53;4.62;90.52
69387;SHT31;56575;48.942;8.404;2022-12-07T00:35:18;4.65;90.78
69387;SHT31;56575;48.942;8.404;2022-12-07T00:37:43;4.62;90.45
69387;SHT31;56575;48.942;8.404;2022-12-07T00:40:42;4.64;90.64
69387;SHT31;56575;48.942;8.404;2022-12-07T00:47:10;4.57;90.88
69387;SHT31;56575;48.942;8.404;2022-12-07T00:49:42;4.61;90.85
69387;SHT31;56575;48.942;8.404;2022-12-07T00:52:07;4.55;91.04
69387;SHT31;56575;48.942;8.404;2022-12-07T00:54:38;4.54;91.45
69387;SHT31;56575;48.942;8.404;2022-12-07T00:57:05;4.54;91.58
69387;SHT31;56575;48.942;8.404;2022-12-07T00:59:31;4.53;91.54
69387;SHT31;56575;48.942;8.404;2022-12-07T01:02:35;4.54;91.53
69387;SHT31;56575;48.942;8.404;2022-12-07T01:05:17;4.57;91.40
69387;SHT31;56575;48.942;8.404;2022-12-07T01:07:43;4.57;91.47
69387;SHT31;56575;48.942;8.404;2022-12-07T01:10:39;4.54;91.60
69387;SHT31;56575;48.942;8.404;2022-12-07T01:39:58;4.62;91.18
69387;SHT31;56575;48.942;8.404;2022-12-07T01:42:24;4.62;91.29
69387;SHT31;56575;48.942;8.404;2022-12-07T01:47:52;4.64;90.72
69387;SHT31;56575;48.942;8.404;2022-12-07T01:50:18;4.62;90.99
69387;SHT31;56575;48.942;8.404;2022-12-07T01:52:45;4.65;90.80
69387;SHT31;56575;48.942;8.404;2022-12-07T01:55:14;4.64;90.88
69387;SHT31;56575;48.942;8.404;2022-12-07T01:57:43;4.64;90.67
69387;SHT31;56575;48.942;8.404;2022-12-07T02:00:11;4.65;90.67
69387;SHT31;56575;48.942;8.404;2022-12-07T02:02:45;4.62;90.64
69387;SHT31;56575;48.942;8.404;2022-12-07T02:05:12;4.61;90.60
69387;SHT31;56575;48.942;8.404;2022-12-07T02:07:38;4.61;90.62
69387;SHT31;56575;48.942;8.404;2022-12-07T02:10:21;4.58;90.54
69387;SHT31;56575;48.942;8.404;2022-12-07T02:13:13;4.58;90.38
69387;SHT31;56575;48.942;8.404;2022-12-07T02:18:30;4.58;90.71
69387;SHT31;56575;48.942;8.404;2022-12-07T02:29:33;4.62;90.36
69387;SHT31;56575;48.942;8.404;2022-12-07T02:35:04;4.47;90.58
69387;SHT31;56575;48.942;8.404;2022-12-07T02:37:34;4.41;91.18
69387;SHT31;56575;48.942;8.404;2022-12-07T02:40:26;4.40;91.72
69387;SHT31;56575;48.942;8.404;2022-12-07T02:43:01;4.34;92.00
69387;SHT31;56575;48.942;8.404;2022-12-07T02:45:28;4.29;92.30
69387;SHT31;56575;48.942;8.404;2022-12-07T02:47:58;4.29;92.73
69387;SHT31;56575;48.942;8.404;2022-12-07T02:50:24;4.32;92.64
69387;SHT31;56575;48.942;8.404;2022-12-07T02:52:50;4.33;92.37
69387;SHT31;56575;48.942;8.404;2022-12-07T02:55:19;4.27;92.61
69387;SHT31;56575;48.942;8.404;2022-12-07T02:58:10;4.32;92.64
69387;SHT31;56575;48.942;8.404;2022-12-07T03:00:49;4.34;92.60
69387;SHT31;56575;48.942;8.404;2022-12-07T03:03:16;4.37;92.53
69387;SHT31;56575;48.942;8.404;2022-12-07T03:08:13;4.36;92.16
69387;SHT31;56575;48.942;8.404;2022-12-07T03:10:56;4.41;92.06
69387;SHT31;56575;48.942;8.404;2022-12-07T03:16:23;4.40;92.09
69387;SHT31;56575;48.942;8.404;2022-12-07T03:19:01;4.33;92.32
69387;SHT31;56575;48.942;8.404;2022-12-07T03:21:32;4.40;91.88
69387;SHT31;56575;48.942;8.404;2022-12-07T03:24:00;4.33;91.94
69387;SHT31;56575;48.942;8.404;2022-12-07T03:26:33;4.36;91.94
69387;SHT31;56575;48.942;8.404;2022-12-07T03:29:04;4.34;91.79
69387;SHT31;56575;48.942;8.404;2022-12-07T03:31:33;4.34;91.65
69387;SHT31;56575;48.942;8.404;2022-12-07T03:34:16;4.33;91.79
69387;SHT31;56575;48.942;8.404;2022-12-07T03:36:50;4.34;91.92
69387;SHT31;56575;48.942;8.404;2022-12-07T03:39:31;4.33;92.11
69387;SHT31;56575;48.942;8.404;2022-12-07T03:42:00;4.32;92.05
69387;SHT31;56575;48.942;8.404;2022-12-07T03:44:26;4.33;91.94
69387;SHT31;56575;48.942;8.404;2022-12-07T03:47:12;4.29;91.90
69387;SHT31;56575;48.942;8.404;2022-12-07T03:49:43;4.26;92.06
69387;SHT31;56575;48.942;8.404;2022-12-07T03:52:18;4.17;91.88
69387;SHT31;56575;48.942;8.404;2022-12-07T03:57:47;3.99;92.17
69387;SHT31;56575;48.942;8.404;2022-12-07T04:00:14;3.98;92.25
69387;SHT31;56575;48.942;8.404;2022-12-07T04:02:41;3.88;92.73
69387;SHT31;56575;48.942;8.404;2022-12-07T04:05:07;3.83;92.96
69387;SHT31;56575;48.942;8.404;2022-12-07T04:07:32;3.86;92.97
69387;SHT31;56575;48.942;8.404;2022-12-07T04:09:58;3.89;92.86
69387;SHT31;56575;48.942;8.404;2022-12-07T04:12:23;3.89;92.60
69387;SHT31;56575;48.942;8.404;2022-12-07T04:14:49;3.91;92.39
69387;SHT31;56575;48.942;8.404;2022-12-07T04:17:14;3.95;92.37
69387;SHT31;56575;48.942;8.404;2022-12-07T04:19:40;3.92;92.14
69387;SHT31;56575;48.942;8.404;2022-12-07T04:22:06;3.93;92.13
69387;SHT31;56575;48.942;8.404;2022-12-07T04:24:32;3.91;92.07
69387;SHT31;56575;48.942;8.404;2022-12-07T04:26:57;3.92;92.21
69387;SHT31;56575;48.942;8.404;2022-12-07T04:29:23;3.96;91.88
69387;SHT31;56575;48.942;8.404;2022-12-07T04:31:49;3.93;91.81
69387;SHT31;56575;48.942;8.404;2022-12-07T04:34:15;3.98;92.07
69387;SHT31;56575;48.942;8.404;2022-12-07T04:36:41;3.99;92.05
69387;SHT31;56575;48.942;8.404;2022-12-07T04:39:08;3.96;91.94
69387;SHT31;56575;48.942;8.404;2022-12-07T04:41:33;3.98;92.05
69387;SHT31;56575;48.942;8.404;2022-12-07T04:44:01;3.96;92.18
69387;SHT31;56575;48.942;8.404;2022-12-07T04:46:29;3.98;92.18
69387;SHT31;56575;48.942;8.404;2022-12-07T04:48:55;3.96;92.26
69387;SHT31;56575;48.942;8.404;2022-12-07T04:51:29;3.98;92.16
69387;SHT31;56575;48.942;8.404;2022-12-07T04:53:55;3.95;91.96
69387;SHT31;56575;48.942;8.404;2022-12-07T04:56:23;3.96;91.68
69387;SHT31;56575;48.942;8.404;2022-12-07T04:58:49;3.93;91.90
69387;SHT31;56575;48.942;8.404;2022-12-07T05:01:16;3.93;91.83
69387;SHT31;56575;48.942;8.404;2022-12-07T05:03:41;3.96;91.79
69387;SHT31;56575;48.942;8.404;2022-12-07T05:06:07;3.96;91.77
69387;SHT31;56575;48.942;8.404;2022-12-07T05:08:34;3.96;91.52
69387;SHT31;56575;48.942;8.404;2022-12-07T05:11:00;3.99;91.49
69387;SHT31;56575;48.942;8.404;2022-12-07T05:13:25;3.95;91.43
69387;SHT31;56575;48.942;8.404;2022-12-07T05:15:51;3.92;91.35
69387;SHT31;56575;48.942;8.404;2022-12-07T05:18:16;3.96;91.47
69387;SHT31;56575;48.942;8.404;2022-12-07T05:20:42;3.96;91.22
69387;SHT31;56575;48.942;8.404;2022-12-07T05:23:08;3.89;91.14
69387;SHT31;56575;48.942;8.404;2022-12-07T05:25:33;3.89;91.57
69387;SHT31;56575;48.942;8.404;2022-12-07T05:27:59;3.89;91.31
69387;SHT31;56575;48.942;8.404;2022-12-07T05:30:25;3.91;91.41
69387;SHT31;56575;48.942;8.404;2022-12-07T05:32:51;3.88;91.09
69387;SHT31;56575;48.942;8.404;2022-12-07T05:35:17;3.92;90.95
69387;SHT31;56575;48.942;8.404;2022-12-07T05:37:43;3.92;90.66
69387;SHT31;56575;48.942;8.404;2022-12-07T05:40:09;3.91;90.39
69387;SHT31;56575;48.942;8.404;2022-12-07T05:42:34;3.93;90.37
69387;SHT31;56575;48.942;8.404;2022-12-07T05:45:00;3.93;89.62
69387;SHT31;56575;48.942;8.404;2022-12-07T05:47:25;3.99;89.64
69387;SHT31;56575;48.942;8.404;2022-12-07T05:49:51;3.95;89.21
69387;SHT31;56575;48.942;8.404;2022-12-07T05:52:16;3.95;89.07
69387;SHT31;56575;48.942;8.404;2022-12-07T05:54:42;4.02;89.27
69387;SHT31;56575;48.942;8.404;2022-12-07T05:57:07;3.99;88.83
69387;SHT31;56575;48.942;8.404;2022-12-07T05:59:32;4.01;88.83
69387;SHT31;56575;48.942;8.404;2022-12-07T06:02:06;4.01;88.69
69387;SHT31;56575;48.942;8.404;2022-12-07T06:04:34;3.99;87.72
69387;SHT31;56575;48.942;8.404;2022-12-07T06:07:00;3.99;87.54
69387;SHT31;56575;48.942;8.404;2022-12-07T06:09:27;4.01;87.59
69387;SHT31;56575;48.942;8.404;2022-12-07T06:11:53;4.02;87.33
69387;SHT31;56575;48.942;8.404;2022-12-07T06:14:37;3.96;86.81
69387;SHT31;56575;48.942;8.404;2022-12-07T06:17:03;3.96;86.96
69387;SHT31;56575;48.942;8.404;2022-12-07T06:19:28;4.01;87.19
69387;SHT31;56575;48.942;8.404;2022-12-07T06:21:54;4.03;87.25
69387;SHT31;56575;48.942;8.404;2022-12-07T06:24:20;4.05;87.01
69387;SHT31;56575;48.942;8.404;2022-12-07T06:26:46;4.09;87.19
69387;SHT31;56575;48.942;8.404;2022-12-07T06:29:12;4.02;86.42
69387;SHT31;56575;48.942;8.404;2022-12-07T06:31:38;3.98;86.86
69387;SHT31;56575;48.942;8.404;2022-12-07T06:34:09;4.01;86.90
69387;SHT31;56575;48.942;8.404;2022-12-07T06:36:34;4.01;86.72
69387;SHT31;56575;48.942;8.404;2022-12-07T06:39:00;3.98;86.71
69387;SHT31;56575;48.942;8.404;2022-12-07T06:41:26;4.01;86.83
69387;SHT31;56575;48.942;8.404;2022-12-07T06:43:51;4.03;86.52
69387;SHT31;56575;48.942;8.404;2022-12-07T06:46:16;4.06;86.75
69387;SHT31;56575;48.942;8.404;2022-12-07T06:48:43;4.10;86.35
69387;SHT31;56575;48.942;8.404;2022-12-07T06:51:09;4.09;85.72
69387;SHT31;56575;48.942;8.404;2022-12-07T06:53:35;4.05;85.65
69387;SHT31;56575;48.942;8.404;2022-12-07T06:56:00;4.02;85.66
69387;SHT31;56575;48.942;8.404;2022-12-07T06:58:26;3.98;85.33
69387;SHT31;56575;48.942;8.404;2022-12-07T07:00:51;4.01;85.08
69387;SHT31;56575;48.942;8.404;2022-12-07T07:03:17;4.02;85.00
69387;SHT31;56575;48.942;8.404;2022-12-07T07:05:43;4.06;84.98
69387;SHT31;56575;48.942;8.404;2022-12-07T07:08:09;4.07;84.57
69387;SHT31;56575;48.942;8.404;2022-12-07T07:10:35;4.07;84.01
69387;SHT31;56575;48.942;8.404;2022-12-07T07:13:01;4.07;84.06
69387;SHT31;56575;48.942;8.404;2022-12-07T07:15:26;4.07;83.01
69387;SHT31;56575;48.942;8.404;2022-12-07T07:17:52;4.10;82.94
69387;SHT31;56575;48.942;8.404;2022-12-07T07:20:17;4.12;82.98
69387;SHT31;56575;48.942;8.404;2022-12-07T07:22:43;4.13;82.86
69387;SHT31;56575;48.942;8.404;2022-12-07T07:25:08;4.14;82.82
69387;SHT31;56575;48.942;8.404;2022-12-07T07:27:34;4.14;82.76
69387;SHT31;56575;48.942;8.404;2022-12-07T07:29:59;4.13;82.69
69387;SHT31;56575;48.942;8.404;2022-12-07T07:32:24;4.16;82.77
69387;SHT31;56575;48.942;8.404;2022-12-07T07:34:50;4.23;82.28
69387;SHT31;56575;48.942;8.404;2022-12-07T07:37:15;4.21;81.13
69387;SHT31;56575;48.942;8.404;2022-12-07T07:39:40;4.21;80.97
69387;SHT31;56575;48.942;8.404;2022-12-07T07:42:06;4.27;81.37
69387;SHT31;56575;48.942;8.404;2022-12-07T07:44:35;4.26;80.79
69387;SHT31;56575;48.942;8.404;2022-12-07T07:47:01;4.29;80.93
69387;SHT31;56575;48.942;8.404;2022-12-07T07:49:26;4.26;80.28
69387;SHT31;56575;48.942;8.404;2022-12-07T07:51:52;4.24;79.96
69387;SHT31;56575;48.942;8.404;2022-12-07T07:54:17;4.32;79.94
69387;SHT31;56575;48.942;8.404;2022-12-07T07:56:43;4.30;79.99
69387;SHT31;56575;48.942;8.404;2022-12-07T07:59:08;4.32;80.26
69387;SHT31;56575;48.942;8.404;2022-12-07T08:01:34;4.33;79.89
69387;SHT31;56575;48.942;8.404;2022-12-07T08:03:59;4.32;78.82
69387;SHT31;56575;48.942;8.404;2022-12-07T08:06:25;4.32;79.76
69387;SHT31;56575;48.942;8.404;2022-12-07T08:08:50;4.37;79.71
69387;SHT31;56575;48.942;8.404;2022-12-07T08:11:16;4.37;79.54
69387;SHT31;56575;48.942;8.404;2022-12-07T08:13:41;4.46;79.38
69387;SHT31;56575;48.942;8.404;2022-12-07T08:16:09;4.46;80.14
69387;SHT31;56575;48.942;8.404;2022-12-07T08:18:36;4.43;80.08
69387;SHT31;56575;48.942;8.404;2022-12-07T08:21:02;4.38;79.26
69387;SHT31;56575;48.942;8.404;2022-12-07T08:23:28;4.38;80.57
69387;SHT31;56575;48.942;8.404;2022-12-07T08:25:54;4.37;80.97
69387;SHT31;56575;48.942;8.404;2022-12-07T08:28:19;4.40;80.26
69387;SHT31;56575;48.942;8.404;2022-12-07T08:30:44;4.40;80.73
69387;SHT31;56575;48.942;8.404;2022-12-07T08:33:10;4.40;80.48
69387;SHT31;56575;48.942;8.404;2022-12-07T08:35:35;4.41;80.85
69387;SHT31;56575;48.942;8.404;2022-12-07T08:38:01;4.41;81.95
69387;SHT31;56575;48.942;8.404;2022-12-07T08:40:27;4.43;80.79
69387;SHT31;56575;48.942;8.404;2022-12-07T08:42:53;4.41;80.97
69387;SHT31;56575;48.942;8.404;2022-12-07T08:45:20;4.43;81.38
69387;SHT31;56575;48.942;8.404;2022-12-07T08:47:55;4.43;81.41
69387;SHT31;56575;48.942;8.404;2022-12-07T08:50:23;4.38;81.70
69387;SHT31;56575;48.942;8.404;2022-12-07T08:52:51;4.44;81.84
69387;SHT31;56575;48.942;8.404;2022-12-07T08:55:18;4.46;81.86
69387;SHT31;56575;48.942;8.404;2022-12-07T08:57:44;4.48;81.84
69387;SHT31;56575;48.942;8.404;2022-12-07T09:00:10;4.53;81.95
69387;SHT31;56575;48.942;8.404;2022-12-07T09:02:35;4.51;81.70
69387;SHT31;56575;48.942;8.404;2022-12-07T09:05:01;4.48;82.10
69387;SHT31;56575;48.942;8.404;2022-12-07T09:07:27;4.51;82.60
69387;SHT31;56575;48.942;8.404;2022-12-07T09:09:52;4.50;82.26
69387;SHT31;56575;48.942;8.404;2022-12-07T09:12:17;4.53;83.05
69387;SHT31;56575;48.942;8.404;2022-12-07T09:14:43;4.51;83.02
69387;SHT31;56575;48.942;8.404;2022-12-07T09:17:10;4.44;83.25
69387;SHT31;56575;48.942;8.404;2022-12-07T09:19:36;4.44;84.18
69387;SHT31;56575;48.942;8.404;2022-12-07T09:22:02;4.38;83.36
69387;SHT31;56575;48.942;8.404;2022-12-07T09:24:29;4.41;84.04
69387;SHT31;56575;48.942;8.404;2022-12-07T09:26:55;4.44;84.10
69387;SHT31;56575;48.942;8.404;2022-12-07T09:29:20;4.51;84.74
69387;SHT31;56575;48.942;8.404;2022-12-07T09:31:46;4.55;83.65
69387;SHT31;56575;48.942;8.404;2022-12-07T09:34:11;4.67;82.98
69387;SHT31;56575;48.942;8.404;2022-12-07T09:36:36;4.69;82.31
69387;SHT31;56575;48.942;8.404;2022-12-07T09:39:02;4.75;82.67
69387;SHT31;56575;48.942;8.404;2022-12-07T09:41:30;4.76;82.55
69387;SHT31;56575;48.942;8.404;2022-12-07T09:44:05;4.81;82.82
69387;SHT31;56575;48.942;8.404;2022-12-07T09:46:36;4.74;82.42
69387;SHT31;56575;48.942;8.404;2022-12-07T09:49:04;4.67;82.51
69387;SHT31;56575;48.942;8.404;2022-12-07T09:51:31;4.65;82.35
69387;SHT31;56575;48.942;8.404;2022-12-07T09:53:57;4.67;82.76
69387;SHT31;56575;48.942;8.404;2022-12-07T09:56:23;4.65;82.15
69387;SHT31;56575;48.942;8.404;2022-12-07T09:58:54;4.69;82.44
69387;SHT31;56575;48.942;8.404;2022-12-07T10:01:23;4.69;82.85
69387;SHT31;56575;48.942;8.404;2022-12-07T10:03:54;4.74;82.74
69387;SHT31;56575;48.942;8.404;2022-12-07T10:06:20;4.71;81.86
69387;SHT31;56575;48.942;8.404;2022-12-07T10:08:46;4.74;82.05
69387;SHT31;56575;48.942;8.404;2022-12-07T10:11:12;4.74;81.73
69387;SHT31;56575;48.942;8.404;2022-12-07T10:13:41;4.74;81.97
69387;SHT31;56575;48.942;8.404;2022-12-07T10:18:49;4.78;81.74
69387;SHT31;56575;48.942;8.404;2022-12-07T10:24:08;4.81;80.89
69387;SHT31;56575;48.942;8.404;2022-12-07T10:31:46;4.95;81.10
69387;SHT31;56575;48.942;8.404;2022-12-07T10:34:34;4.95;80.89
69387;SHT31;56575;48.942;8.404;2022-12-07T10:42:16;5.03;80.85
69387;SHT31;56575;48.942;8.404;2022-12-07T10:44:42;5.06;80.12
69387;SHT31;56575;48.942;8.404;2022-12-07T10:49:59;5.03;79.77
69387;SHT31;56575;48.942;8.404;2022-12-07T10:55:22;5.06;79.74
69387;SHT31;56575;48.942;8.404;2022-12-07T10:58:15;5.00;80.09
69387;SHT31;56575;48.942;8.404;2022-12-07T11:01:10;5.03;79.81
69387;SHT31;56575;48.942;8.404;2022-12-07T11:06:34;5.06;79.71
69387;SHT31;56575;48.942;8.404;2022-12-07T11:12:17;5.13;79.87
69387;SHT31;56575;48.942;8.404;2022-12-07T11:17:40;5.06;79.71
69387;SHT31;56575;48.942;8.404;2022-12-07T11:20:34;5.10;79.66
69387;SHT31;56575;48.942;8.404;2022-12-07T11:26:28;5.09;79.81
69387;SHT31;56575;48.942;8.404;2022-12-07T11:29:14;5.18;80.25
69387;SHT31;56575;48.942;8.404;2022-12-07T11:32:10;5.26;79.85
69387;SHT31;56575;48.942;8.404;2022-12-07T11:34:57;5.30;79.65
69387;SHT31;56575;48.942;8.404;2022-12-07T11:37:33;5.30;79.14
69387;SHT31;56575;48.942;8.404;2022-12-07T11:40:08;5.22;79.08
69387;SHT31;56575;48.942;8.404;2022-12-07T11:42:46;5.30;79.72
69387;SHT31;56575;48.942;8.404;2022-12-07T11:45:24;5.36;80.02
69387;SHT31;56575;48.942;8.404;2022-12-07T11:48:04;5.40;79.53
69387;SHT31;56575;48.942;8.404;2022-12-07T11:53:25;5.27;79.93
69387;SHT31;56575;48.942;8.404;2022-12-07T12:06:29;5.33;80.45
69387;SHT31;56575;48.942;8.404;2022-12-07T12:09:13;5.36;80.41
69387;SHT31;56575;48.942;8.404;2022-12-07T12:20:26;5.22;80.83
69387;SHT31;56575;48.942;8.404;2022-12-07T12:22:53;5.31;81.03
69387;SHT31;56575;48.942;8.404;2022-12-07T12:25:42;5.31;80.61
69387;SHT31;56575;48.942;8.404;2022-12-07T12:28:29;5.27;80.99
69387;SHT31;56575;48.942;8.404;2022-12-07T12:31:09;5.24;81.43
69387;SHT31;56575;48.942;8.404;2022-12-07T12:33:35;5.27;80.66
69387;SHT31;56575;48.942;8.404;2022-12-07T12:38:48;5.30;81.10
69387;SHT31;56575;48.942;8.404;2022-12-07T12:46:56;5.30;80.06
69387;SHT31;56575;48.942;8.404;2022-12-07T12:51:59;5.22;80.28
69387;SHT31;56575;48.942;8.404;2022-12-07T12:54:30;5.26;80.77
69387;SHT31;56575;48.942;8.404;2022-12-07T12:57:09;5.22;80.66
69387;SHT31;56575;48.942;8.404;2022-12-07T13:02:37;5.15;81.07
69387;SHT31;56575;48.942;8.404;2022-12-07T13:15:44;5.23;81.00
69387;SHT31;56575;48.942;8.404;2022-12-07T13:29:16;5.13;81.81
69387;SHT31;56575;48.942;8.404;2022-12-07T13:31:56;5.15;82.38
69387;SHT31;56575;48.942;8.404;2022-12-07T13:36:55;5.13;82.25
69387;SHT31;56575;48.942;8.404;2022-12-07T13:39:23;5.12;82.44
69387;SHT31;56575;48.942;8.404;2022-12-07T13:41:53;5.13;82.30
69387;SHT31;56575;48.942;8.404;2022-12-07T13:44:21;5.05;82.25
69387;SHT31;56575;48.942;8.404;2022-12-07T13:49:21;5.09;82.92
69387;SHT31;56575;48.942;8.404;2022-12-07T13:51:48;5.09;82.91
69387;SHT31;56575;48.942;8.404;2022-12-07T13:54:14;5.03;82.90
69387;SHT31;56575;48.942;8.404;2022-12-07T13:56:40;5.12;83.29
69387;SHT31;56575;48.942;8.404;2022-12-07T13:59:14;5.13;83.50
69387;SHT31;56575;48.942;8.404;2022-12-07T14:01:41;5.13;83.70
69387;SHT31;56575;48.942;8.404;2022-12-07T14:04:32;5.13;83.62
69387;SHT31;56575;48.942;8.404;2022-12-07T14:06:59;5.18;83.69
69387;SHT31;56575;48.942;8.404;2022-12-07T14:09:26;5.23;83.68
69387;SHT31;56575;48.942;8.404;2022-12-07T14:11:54;5.15;83.74
69387;SHT31;56575;48.942;8.404;2022-12-07T14:17:35;5.16;83.88
69387;SHT31;56575;48.942;8.404;2022-12-07T14:20:03;5.16;83.83
69387;SHT31;56575;48.942;8.404;2022-12-07T14:22:37;5.13;82.66
69387;SHT31;56575;48.942;8.404;2022-12-07T14:25:19;5.00;82.79
69387;SHT31;56575;48.942;8.404;2022-12-07T14:27:59;4.97;83.37
69387;SHT31;56575;48.942;8.404;2022-12-07T14:30:34;5.06;83.32
69387;SHT31;56575;48.942;8.404;2022-12-07T14:33:04;5.05;83.00
69387;SHT31;56575;48.942;8.404;2022-12-07T14:35:31;5.03;83.44
69387;SHT31;56575;48.942;8.404;2022-12-07T14:37:57;5.06;83.68
69387;SHT31;56575;48.942;8.404;2022-12-07T14:40:27;5.08;83.92
69387;SHT31;56575;48.942;8.404;2022-12-07T14:42:57;5.06;84.16
69387;SHT31;56575;48.942;8.404;2022-12-07T14:45:25;5.08;83.64
69387;SHT31;56575;48.942;8.404;2022-12-07T14:47:50;5.09;83.83
69387;SHT31;56575;48.942;8.404;2022-12-07T14:50:19;5.10;84.10
69387;SHT31;56575;48.942;8.404;2022-12-07T14:53:14;5.18;85.27
69387;SHT31;56575;48.942;8.404;2022-12-07T14:55:43;5.19;84.30
69387;SHT31;56575;48.942;8.404;2022-12-07T14:58:16;5.20;84.10
69387;SHT31;56575;48.942;8.404;2022-12-07T15:00:43;5.16;83.88
69387;SHT31;56575;48.942;8.404;2022-12-07T15:03:08;5.09;83.67
69387;SHT31;56575;48.942;8.404;2022-12-07T15:05:34;5.06;83.99
69387;SHT31;56575;48.942;8.404;2022-12-07T15:08:00;5.03;84.25
69387;SHT31;56575;48.942;8.404;2022-12-07T15:10:28;5.10;84.72
69387;SHT31;56575;48.942;8.404;2022-12-07T15:12:56;5.08;84.43
69387;SHT31;56575;48.942;8.404;2022-12-07T15:15:45;4.99;84.69
69387;SHT31;56575;48.942;8.404;2022-12-07T15:18:11;5.00;85.01
69387;SHT31;56575;48.942;8.404;2022-12-07T15:20:37;4.95;84.86
69387;SHT31;56575;48.942;8.404;2022-12-07T15:23:02;4.96;84.90
69387;SHT31;56575;48.942;8.404;2022-12-07T15:25:28;4.92;84.71
69387;SHT31;56575;48.942;8.404;2022-12-07T15:27:53;4.89;85.11
69387;SHT31;56575;48.942;8.404;2022-12-07T15:30:18;4.88;85.01
69387;SHT31;56575;48.942;8.404;2022-12-07T15:32:44;4.89;84.83
69387;SHT31;56575;48.942;8.404;2022-12-07T15:35:09;4.91;85.09
69387;SHT31;56575;48.942;8.404;2022-12-07T15:37:35;4.89;84.94
69387;SHT31;56575;48.942;8.404;2022-12-07T15:40:00;4.89;84.89
69387;SHT31;56575;48.942;8.404;2022-12-07T15:42:25;4.95;84.74
69387;SHT31;56575;48.942;8.404;2022-12-07T15:44:51;4.96;84.52
69387;SHT31;56575;48.942;8.404;2022-12-07T15:47:47;4.95;84.69
69387;SHT31;56575;48.942;8.404;2022-12-07T15:50:14;4.96;84.79
69387;SHT31;56575;48.942;8.404;2022-12-07T15:52:40;4.91;84.71
69387;SHT31;56575;48.942;8.404;2022-12-07T15:55:06;4.86;84.60
69387;SHT31;56575;48.942;8.404;2022-12-07T15:57:34;4.85;84.84
69387;SHT31;56575;48.942;8.404;2022-12-07T15:59:59;4.88;84.75
69387;SHT31;56575;48.942;8.404;2022-12-07T16:02:25;4.85;84.53
69387;SHT31;56575;48.942;8.404;2022-12-07T16:04:51;4.83;84.60
69387;SHT31;56575;48.942;8.404;2022-12-07T16:07:17;4.82;84.74
69387;SHT31;56575;48.942;8.404;2022-12-07T16:09:43;4.79;84.39
69387;SHT31;56575;48.942;8.404;2022-12-07T16:12:10;4.78;84.30
69387;SHT31;56575;48.942;8.404;2022-12-07T16:14:36;4.75;84.74
69387;SHT31;56575;48.942;8.404;2022-12-07T16:17:02;4.81;84.85
69387;SHT31;56575;48.942;8.404;2022-12-07T16:19:30;4.82;85.12
69387;SHT31;56575;48.942;8.404;2022-12-07T16:21:55;4.78;84.51
69387;SHT31;56575;48.942;8.404;2022-12-07T16:24:20;4.79;84.70
69387;SHT31;56575;48.942;8.404;2022-12-07T16:26:46;4.82;84.61
69387;SHT31;56575;48.942;8.404;2022-12-07T16:29:12;4.76;84.55
69387;SHT31;56575;48.942;8.404;2022-12-07T16:31:38;4.72;84.44
69387;SHT31;56575;48.942;8.404;2022-12-07T16:34:04;4.76;84.45
69387;SHT31;56575;48.942;8.404;2022-12-07T16:36:30;4.71;84.52
69387;SHT31;56575;48.942;8.404;2022-12-07T16:38:58;4.71;84.45
69387;SHT31;56575;48.942;8.404;2022-12-07T16:41:23;4.71;84.38
69387;SHT31;56575;48.942;8.404;2022-12-07T16:43:49;4.71;84.20
69387;SHT31;56575;48.942;8.404;2022-12-07T16:46:14;4.75;84.38
69387;SHT31;56575;48.942;8.404;2022-12-07T16:48:41;4.74;84.52
69387;SHT31;56575;48.942;8.404;2022-12-07T16:51:09;4.68;84.51
69387;SHT31;56575;48.942;8.404;2022-12-07T16:53:36;4.65;84.87
69387;SHT31;56575;48.942;8.404;2022-12-07T16:56:02;4.65;84.95
69387;SHT31;56575;48.942;8.404;2022-12-07T16:58:28;4.65;84.97
69387;SHT31;56575;48.942;8.404;2022-12-07T17:00:53;4.64;84.85
69387;SHT31;56575;48.942;8.404;2022-12-07T17:03:19;4.67;85.21
69387;SHT31;56575;48.942;8.404;2022-12-07T17:05:45;4.62;85.20
69387;SHT31;56575;48.942;8.404;2022-12-07T17:08:12;4.62;85.20
69387;SHT31;56575;48.942;8.404;2022-12-07T17:10:40;4.64;85.14
69387;SHT31;56575;48.942;8.404;2022-12-07T17:13:06;4.65;85.29
69387;SHT31;56575;48.942;8.404;2022-12-07T17:16:02;4.62;85.42
69387;SHT31;56575;48.942;8.404;2022-12-07T17:18:30;4.61;85.68
69387;SHT31;56575;48.942;8.404;2022-12-07T17:21:02;4.62;85.23
69387;SHT31;56575;48.942;8.404;2022-12-07T17:23:28;4.60;85.29
69387;SHT31;56575;48.942;8.404;2022-12-07T17:25:54;4.58;85.26
69387;SHT31;56575;48.942;8.404;2022-12-07T17:28:19;4.58;85.39
69387;SHT31;56575;48.942;8.404;2022-12-07T17:30:44;4.53;85.36
69387;SHT31;56575;48.942;8.404;2022-12-07T17:33:10;4.51;85.50
69387;SHT31;56575;48.942;8.404;2022-12-07T17:35:35;4.44;85.81
69387;SHT31;56575;48.942;8.404;2022-12-07T17:38:00;4.46;85.84
69387;SHT31;56575;48.942;8.404;2022-12-07T17:40:26;4.41;85.91
69387;SHT31;56575;48.942;8.404;2022-12-07T17:42:51;4.41;85.75
69387;SHT31;56575;48.942;8.404;2022-12-07T17:45:17;4.43;85.81
69387;SHT31;56575;48.942;8.404;2022-12-07T17:47:42;4.43;85.76
69387;SHT31;56575;48.942;8.404;2022-12-07T17:50:08;4.44;85.96
69387;SHT31;56575;48.942;8.404;2022-12-07T17:52:37;4.44;85.87
69387;SHT31;56575;48.942;8.404;2022-12-07T17:55:21;4.41;85.95
69387;SHT31;56575;48.942;8.404;2022-12-07T17:57:47;4.43;85.86
69387;SHT31;56575;48.942;8.404;2022-12-07T18:00:12;4.41;86.18
69387;SHT31;56575;48.942;8.404;2022-12-07T18:02:39;4.38;86.20
69387;SHT31;56575;48.942;8.404;2022-12-07T18:05:04;4.38;86.07
69387;SHT31;56575;48.942;8.404;2022-12-07T18:07:30;4.40;86.13
69387;SHT31;56575;48.942;8.404;2022-12-07T18:09:55;4.41;85.87
69387;SHT31;56575;48.942;8.404;2022-12-07T18:12:22;4.37;85.84
69387;SHT31;56575;48.942;8.404;2022-12-07T18:14:47;4.36;85.79
69387;SHT31;56575;48.942;8.404;2022-12-07T18:17:15;4.36;85.35
69387;SHT31;56575;48.942;8.404;2022-12-07T18:19:40;4.38;85.40
69387;SHT31;56575;48.942;8.404;2022-12-07T18:22:06;4.34;85.34
69387;SHT31;56575;48.942;8.404;2022-12-07T18:24:31;4.33;85.20
69387;SHT31;56575;48.942;8.404;2022-12-07T18:26:57;4.33;84.91
69387;SHT31;56575;48.942;8.404;2022-12-07T18:29:23;4.29;85.21
69387;SHT31;56575;48.942;8.404;2022-12-07T18:31:48;4.26;85.13
69387;SHT31;56575;48.942;8.404;2022-12-07T18:34:16;4.23;85.18
69387;SHT31;56575;48.942;8.404;2022-12-07T18:36:44;4.19;85.43
69387;SHT31;56575;48.942;8.404;2022-12-07T18:39:15;4.16;85.39
69387;SHT31;56575;48.942;8.404;2022-12-07T18:41:41;4.10;85.49
69387;SHT31;56575;48.942;8.404;2022-12-07T18:44:07;4.06;85.57
69387;SHT31;56575;48.942;8.404;2022-12-07T18:46:33;4.03;85.37
69387;SHT31;56575;48.942;8.404;2022-12-07T18:48:59;4.02;85.52